createdAt,value
2022-08-20T00:02:15.513Z,20.50
2022-08-20T00:04:44.662Z,20.51
2022-08-20T00:07:14.611Z,20.47
2022-08-20T00:09:43.444Z,20.43
2022-08-20T00:12:16.159Z,20.38
2022-08-20T00:14:44.332Z,20.33
2022-08-20T00:17:12.414Z,20.29
2022-08-20T00:19:40.481Z,20.26
2022-08-20T00:22:08.611Z,20.22
2022-08-20T00:24:36.785Z,20.20
2022-08-20T00:27:05.370Z,20.17
2022-08-20T00:29:33.436Z,20.16
2022-08-20T00:32:01.559Z,20.14
2022-08-20T00:34:30.409Z,20.09
2022-08-20T00:36:58.510Z,20.08
2022-08-20T00:39:26.590Z,20.10
2022-08-20T00:41:55.189Z,20.09
2022-08-20T00:44:23.323Z,20.07
2022-08-20T00:46:53.673Z,20.07
2022-08-20T00:49:28.295Z,20.04
2022-08-20T00:52:07.784Z,20.00
2022-08-20T00:54:39.917Z,19.98
2022-08-20T00:57:19.698Z,19.98
2022-08-20T00:59:49.960Z,19.96
2022-08-20T01:02:21.514Z,19.95
2022-08-20T01:04:54.810Z,19.94
2022-08-20T01:07:32.696Z,19.91
2022-08-20T01:10:04.945Z,19.86
2022-08-20T01:12:32.948Z,19.82
2022-08-20T01:15:04.703Z,19.81
2022-08-20T01:17:36.394Z,19.82
2022-08-20T01:20:13.897Z,19.80
2022-08-20T01:23:30.197Z,19.80
2022-08-20T01:26:25.603Z,19.80
2022-08-20T01:28:58.671Z,19.80
2022-08-20T01:31:30.236Z,19.80
2022-08-20T01:34:01.692Z,19.78
2022-08-20T01:36:51.563Z,19.74
2022-08-20T01:39:23.726Z,19.70
2022-08-20T01:42:03.421Z,19.66
2022-08-20T01:44:32.615Z,19.65
2022-08-20T01:47:12.670Z,19.65
2022-08-20T01:49:46.672Z,19.66
2022-08-20T01:52:41.601Z,19.65
2022-08-20T01:55:10.626Z,19.61
2022-08-20T01:57:39.991Z,19.56
2022-08-20T02:00:20.091Z,19.52
2022-08-20T02:02:50.627Z,19.49
2022-08-20T02:05:19.932Z,19.49
2022-08-20T02:07:48.136Z,19.48
2022-08-20T02:10:18.412Z,19.46
2022-08-20T02:12:46.874Z,19.43
2022-08-20T02:15:15.582Z,19.43
2022-08-20T02:17:44.997Z,19.45
2022-08-20T02:20:17.925Z,19.47
2022-08-20T02:22:58.842Z,19.47
2022-08-20T02:25:30.676Z,19.46
2022-08-20T02:28:06.321Z,19.43
2022-08-20T02:30:39.248Z,19.38
2022-08-20T02:33:10.683Z,19.35
2022-08-20T02:35:42.919Z,19.30
2022-08-20T02:38:11.770Z,19.27
2022-08-20T02:40:40.873Z,19.26
2022-08-20T02:43:08.924Z,19.23
2022-08-20T02:45:43.664Z,19.20
2022-08-20T02:48:23.613Z,19.16
2022-08-20T02:51:05.110Z,19.12
2022-08-20T02:53:36.513Z,19.07
2022-08-20T02:56:06.362Z,19.05
2022-08-20T02:58:35.383Z,19.01
2022-08-20T03:01:06.942Z,18.97
2022-08-20T03:03:35.459Z,18.96
2022-08-20T03:06:04.613Z,18.95
2022-08-20T03:08:33.004Z,18.95
2022-08-20T03:11:01.216Z,18.96
2022-08-20T03:13:29.296Z,18.97
2022-08-20T03:16:02.337Z,18.98
2022-08-20T03:18:34.972Z,19.02
2022-08-20T03:21:04.984Z,19.06
2022-08-20T03:23:35.153Z,19.07
2022-08-20T03:26:05.651Z,19.06
2022-08-20T03:28:34.241Z,19.06
2022-08-20T03:31:03.183Z,19.07
2022-08-20T03:33:34.017Z,19.09
2022-08-20T03:36:02.027Z,19.07
2022-08-20T03:38:32.862Z,19.04
2022-08-20T03:41:02.428Z,19.02
2022-08-20T03:43:31.379Z,19.03
2022-08-20T03:45:59.966Z,19.04
2022-08-20T03:48:29.568Z,19.04
2022-08-20T03:51:00.968Z,19.04
2022-08-20T03:53:31.905Z,19.01
2022-08-20T03:56:02.440Z,18.98
2022-08-20T03:58:36.096Z,18.94
2022-08-20T04:01:07.479Z,18.91
2022-08-20T04:03:41.495Z,18.89
2022-08-20T04:06:09.535Z,18.90
2022-08-20T04:08:40.431Z,18.91
2022-08-20T04:11:08.993Z,18.95
2022-08-20T04:13:41.476Z,18.98
2022-08-20T04:16:14.759Z,19.01
2022-08-20T04:19:01.710Z,19.04
2022-08-20T04:21:35.604Z,19.09
2022-08-20T04:24:05.860Z,19.14
2022-08-20T04:26:36.606Z,19.18
2022-08-20T04:29:05.237Z,19.21
2022-08-20T04:31:33.795Z,19.25
2022-08-20T04:34:03.738Z,19.30
2022-08-20T04:36:31.983Z,19.34
2022-08-20T04:38:59.987Z,19.40
2022-08-20T04:41:28.375Z,19.45
2022-08-20T04:43:56.905Z,19.50
2022-08-20T04:46:28.919Z,19.54
2022-08-20T04:48:57.651Z,19.58
2022-08-20T04:51:26.940Z,19.60
2022-08-20T04:53:57.528Z,19.63
2022-08-20T04:56:30.685Z,19.68
2022-08-20T04:59:00.825Z,19.73
2022-08-20T05:01:28.941Z,19.79
2022-08-20T05:03:58.099Z,19.85
2022-08-20T05:06:30.697Z,19.91
2022-08-20T05:09:00.856Z,19.96
2022-08-20T05:11:33.381Z,19.98
2022-08-20T05:14:05.757Z,19.99
2022-08-20T05:16:38.106Z,20.01
2022-08-20T05:19:09.195Z,20.05
2022-08-20T05:21:38.019Z,20.10
2022-08-20T05:24:07.380Z,20.16
2022-08-20T05:26:36.125Z,20.19
2022-08-20T05:29:05.691Z,20.23
2022-08-20T05:31:34.956Z,20.27
2022-08-20T05:34:12.523Z,20.33
2022-08-20T05:36:44.829Z,20.34
2022-08-20T05:39:13.877Z,20.36
2022-08-20T05:41:42.388Z,20.41
2022-08-20T05:44:13.601Z,20.46
2022-08-20T05:46:44.991Z,20.53
2022-08-20T05:49:20.266Z,20.60
2022-08-20T05:51:51.085Z,20.65
2022-08-20T05:54:19.502Z,20.70
2022-08-20T05:56:47.658Z,20.75
2022-08-20T05:59:15.913Z,20.81
2022-08-20T06:01:44.436Z,20.88
2022-08-20T06:04:24.918Z,20.97
2022-08-20T06:06:56.495Z,21.07
2022-08-20T06:09:31.898Z,21.17
2022-08-20T06:12:04.531Z,21.27
2022-08-20T06:14:33.033Z,21.39
2022-08-20T06:17:10.982Z,21.49
2022-08-20T06:19:44.471Z,21.62
2022-08-20T06:22:19.485Z,21.73
2022-08-20T06:24:55.591Z,21.85
2022-08-20T06:27:24.570Z,21.95
2022-08-20T06:29:54.102Z,22.04
2022-08-20T06:32:31.737Z,22.14
2022-08-20T06:35:03.927Z,22.23
2022-08-20T06:37:33.750Z,22.32
2022-08-20T06:40:12.679Z,22.44
2022-08-20T06:42:47.408Z,22.55
2022-08-20T06:45:21.610Z,22.67
2022-08-20T06:47:49.666Z,22.79
2022-08-20T06:50:22.000Z,22.89
2022-08-20T06:53:03.181Z,22.99
2022-08-20T06:55:32.941Z,23.11
2022-08-20T06:58:04.432Z,23.20
2022-08-20T07:00:34.297Z,23.29
2022-08-20T07:03:04.249Z,23.40
2022-08-20T07:05:35.005Z,23.49
2022-08-20T07:08:03.302Z,23.59
2022-08-20T07:10:32.057Z,23.70
2022-08-20T07:13:00.642Z,23.81
2022-08-20T07:15:30.478Z,23.93
2022-08-20T07:18:02.103Z,24.06
2022-08-20T07:20:32.189Z,24.19
2022-08-20T07:23:01.240Z,24.32
2022-08-20T07:25:31.283Z,24.46
2022-08-20T07:28:14.015Z,24.58
2022-08-20T07:31:01.244Z,24.72
2022-08-20T07:33:42.818Z,24.86
2022-08-20T07:36:14.104Z,24.98
2022-08-20T07:38:47.777Z,25.12
2022-08-20T07:41:15.888Z,25.29
2022-08-20T07:43:47.733Z,25.45
2022-08-20T07:46:20.653Z,25.61
2022-08-20T07:48:51.819Z,25.79
2022-08-20T07:51:22.564Z,25.93
2022-08-20T07:53:52.020Z,26.10
2022-08-20T07:56:24.778Z,26.28
2022-08-20T07:58:55.731Z,26.47
2022-08-20T08:01:28.639Z,26.66
2022-08-20T08:03:57.961Z,26.84
2022-08-20T08:06:29.394Z,26.96
2022-08-20T08:09:04.876Z,27.09
2022-08-20T08:11:37.832Z,27.21
2022-08-20T08:14:08.360Z,27.36
2022-08-20T08:16:37.578Z,27.49
2022-08-20T08:19:09.096Z,27.63
2022-08-20T08:21:37.333Z,27.77
2022-08-20T08:24:05.468Z,27.91
2022-08-20T08:26:33.484Z,28.04
2022-08-20T08:29:02.725Z,28.16
2022-08-20T08:31:30.823Z,28.29
2022-08-20T08:33:59.051Z,28.42
2022-08-20T08:36:27.470Z,28.53
2022-08-20T08:38:56.862Z,28.64
2022-08-20T08:41:37.600Z,28.74
2022-08-20T08:44:11.831Z,28.85
2022-08-20T08:46:43.990Z,28.97
2022-08-20T08:49:16.771Z,29.08
2022-08-20T08:51:56.591Z,29.16
2022-08-20T08:54:29.681Z,29.27
2022-08-20T08:56:59.838Z,29.39
2022-08-20T08:59:48.739Z,29.49
2022-08-20T09:02:27.933Z,29.59
2022-08-20T09:05:00.462Z,29.68
2022-08-20T09:07:32.633Z,29.75
2022-08-20T09:10:02.453Z,29.83
2022-08-20T09:12:30.515Z,29.90
2022-08-20T09:14:58.649Z,30.01
2022-08-20T09:17:26.715Z,30.11
2022-08-20T09:19:54.718Z,30.20
2022-08-20T09:22:26.111Z,30.29
2022-08-20T09:24:54.615Z,30.37
2022-08-20T09:27:22.587Z,30.46
2022-08-20T09:29:50.623Z,30.57
2022-08-20T09:32:22.261Z,30.69
2022-08-20T09:34:56.587Z,30.82
2022-08-20T09:37:26.758Z,30.93
2022-08-20T09:39:55.541Z,31.02
2022-08-20T09:42:27.185Z,31.08
2022-08-20T09:44:55.979Z,31.20
2022-08-20T09:47:24.238Z,31.31
2022-08-20T09:49:52.535Z,31.43
2022-08-20T09:52:23.286Z,31.54
2022-08-20T09:54:55.602Z,31.64
2022-08-20T09:57:23.981Z,31.74
2022-08-20T09:59:57.574Z,31.86
2022-08-20T10:02:25.785Z,32.03
2022-08-20T10:04:53.967Z,32.17
2022-08-20T10:07:22.052Z,32.32
2022-08-20T10:09:50.088Z,32.45
2022-08-20T10:12:18.207Z,32.55
2022-08-20T10:14:46.276Z,32.58
2022-08-20T10:17:14.322Z,32.62
2022-08-20T10:19:42.420Z,32.74
2022-08-20T10:22:10.543Z,32.87
2022-08-20T10:24:38.589Z,33.00
2022-08-20T10:27:06.677Z,33.19
2022-08-20T10:29:35.750Z,33.40
2022-08-20T10:32:12.610Z,33.61
2022-08-20T10:34:43.453Z,33.79
2022-08-20T10:37:19.374Z,33.98
2022-08-20T10:39:47.934Z,34.20
2022-08-20T10:42:16.127Z,34.38
2022-08-20T10:44:44.327Z,34.53
2022-08-20T10:47:28.153Z,34.67
2022-08-20T10:49:59.461Z,34.82
2022-08-20T10:52:28.478Z,34.91
2022-08-20T10:54:56.550Z,34.99
2022-08-20T10:57:27.566Z,35.11
2022-08-20T10:59:57.391Z,35.22
2022-08-20T11:02:26.731Z,35.33
2022-08-20T11:04:55.428Z,35.42
2022-08-20T11:07:50.531Z,35.43
2022-08-20T11:10:23.067Z,35.41
2022-08-20T11:12:51.100Z,35.42
2022-08-20T11:15:19.253Z,35.44
2022-08-20T11:17:47.574Z,35.37
2022-08-20T11:20:18.201Z,35.35
2022-08-20T11:22:46.615Z,35.36
2022-08-20T11:25:15.022Z,35.41
2022-08-20T11:27:46.872Z,35.50
2022-08-20T11:30:20.149Z,35.57
2022-08-20T11:32:48.520Z,35.64
2022-08-20T11:38:05.755Z,35.83
2022-08-20T11:40:34.547Z,35.86
2022-08-20T11:43:18.506Z,35.92
2022-08-20T11:45:49.944Z,35.89
2022-08-20T11:48:18.310Z,35.89
2022-08-20T11:50:47.710Z,35.92
2022-08-20T11:53:16.210Z,35.98
2022-08-20T11:55:45.238Z,36.03
2022-08-20T11:58:13.723Z,36.13
2022-08-20T12:00:41.850Z,36.22
2022-08-20T12:03:11.933Z,36.30
2022-08-20T12:05:42.919Z,36.39
2022-08-20T12:08:26.736Z,36.40
2022-08-20T12:10:59.669Z,36.28
2022-08-20T12:13:47.911Z,36.25
2022-08-20T12:16:19.383Z,36.19
2022-08-20T12:18:48.155Z,36.07
2022-08-20T12:21:17.144Z,35.97
2022-08-20T12:23:46.143Z,35.85
2022-08-20T12:26:16.848Z,35.67
2022-08-20T12:28:44.846Z,35.53
2022-08-20T12:31:12.957Z,35.31
2022-08-20T12:33:41.349Z,35.07
2022-08-20T12:36:09.380Z,34.85
2022-08-20T12:38:37.612Z,34.66
2022-08-20T12:41:06.447Z,34.51
2022-08-20T12:43:34.530Z,34.37
2022-08-20T12:46:02.577Z,34.23
2022-08-20T12:48:30.603Z,34.10
2022-08-20T12:50:58.680Z,33.94
2022-08-20T12:53:26.760Z,33.79
2022-08-20T12:55:54.694Z,33.64
2022-08-20T12:58:22.821Z,33.49
2022-08-20T13:00:51.443Z,33.34
2022-08-20T13:03:21.148Z,33.17
2022-08-20T13:05:49.602Z,33.02
2022-08-20T13:08:19.481Z,32.90
2022-08-20T13:10:48.295Z,32.78
2022-08-20T13:13:20.981Z,32.65
2022-08-20T13:15:51.228Z,32.51
2022-08-20T13:18:20.406Z,32.39
2022-08-20T13:20:49.261Z,32.27
2022-08-20T13:23:17.438Z,32.15
2022-08-20T13:25:45.520Z,32.03
2022-08-20T13:28:13.663Z,31.91
2022-08-20T13:30:41.829Z,31.79
2022-08-20T13:33:09.897Z,31.68
2022-08-20T13:35:38.024Z,31.58
2022-08-20T13:38:06.124Z,31.48
2022-08-20T13:40:34.623Z,31.38
2022-08-20T13:43:06.735Z,31.27
2022-08-20T13:45:37.641Z,31.12
2022-08-20T13:48:14.487Z,30.93
2022-08-20T13:50:46.881Z,30.71
2022-08-20T13:53:16.146Z,30.44
2022-08-20T13:55:45.085Z,30.10
2022-08-20T13:58:13.484Z,29.75
2022-08-20T14:00:41.665Z,29.47
2022-08-20T14:03:09.834Z,29.21
2022-08-20T14:05:38.872Z,28.97
2022-08-20T14:08:12.187Z,28.79
2022-08-20T14:10:42.585Z,28.64
2022-08-20T14:13:15.436Z,28.42
2022-08-20T14:15:45.295Z,28.14
2022-08-20T14:18:14.889Z,27.91
2022-08-20T14:20:45.580Z,27.72
2022-08-20T14:23:15.206Z,27.52
2022-08-20T14:25:47.330Z,27.38
2022-08-20T14:28:21.463Z,27.22
2022-08-20T14:30:52.953Z,27.07
2022-08-20T14:33:23.968Z,26.92
2022-08-20T14:35:53.177Z,26.75
2022-08-20T14:38:21.761Z,26.61
2022-08-20T14:40:50.806Z,26.52
2022-08-20T14:43:19.827Z,26.41
2022-08-20T14:45:48.009Z,26.34
2022-08-20T14:48:16.137Z,26.27
2022-08-20T14:50:44.595Z,26.21
2022-08-20T14:53:12.635Z,26.13
2022-08-20T14:55:40.710Z,26.06
2022-08-20T14:58:11.430Z,26.03
2022-08-20T15:00:39.942Z,25.98
2022-08-20T15:03:08.399Z,25.96
2022-08-20T15:05:39.648Z,25.93
2022-08-20T15:08:10.725Z,25.91
2022-08-20T15:10:39.554Z,25.89
2022-08-20T15:13:08.542Z,25.88
2022-08-20T15:15:36.981Z,25.88
2022-08-20T15:18:05.998Z,25.88
2022-08-20T15:20:35.345Z,25.88
2022-08-20T15:23:04.841Z,25.87
2022-08-20T15:25:36.531Z,25.84
2022-08-20T15:28:09.150Z,25.82
2022-08-20T15:30:40.685Z,25.80
2022-08-20T15:33:11.512Z,25.77
2022-08-20T15:35:39.747Z,25.74
2022-08-20T15:38:07.862Z,25.71
2022-08-20T15:40:36.017Z,25.70
2022-08-20T15:43:06.014Z,25.66
2022-08-20T15:45:35.256Z,25.61
2022-08-20T15:48:17.211Z,25.55
2022-08-20T15:50:48.245Z,25.50
2022-08-20T15:53:27.375Z,25.42
2022-08-20T15:56:16.667Z,25.32
2022-08-20T15:59:21.282Z,25.26
2022-08-20T16:01:55.323Z,25.19
2022-08-20T16:04:35.384Z,25.12
2022-08-20T16:07:10.089Z,25.08
2022-08-20T16:10:16.209Z,25.03
2022-08-20T16:12:49.831Z,24.96
2022-08-20T16:15:28.751Z,24.91
2022-08-20T16:18:15.497Z,24.88
2022-08-20T16:20:53.028Z,24.84
2022-08-20T16:23:32.544Z,24.80
2022-08-20T16:26:15.775Z,24.77
2022-08-20T16:28:49.481Z,24.74
2022-08-20T16:31:21.017Z,24.69
2022-08-20T16:34:02.420Z,24.65
2022-08-20T16:37:03.225Z,24.62
2022-08-20T16:39:48.648Z,24.58
2022-08-20T16:42:24.000Z,24.57
2022-08-20T16:44:55.215Z,24.55
2022-08-20T16:47:31.306Z,24.53
2022-08-20T16:50:20.171Z,24.55
2022-08-20T16:52:50.277Z,24.57
2022-08-20T16:55:21.248Z,24.59
2022-08-20T16:57:50.075Z,24.61
2022-08-20T17:00:26.803Z,24.62
2022-08-20T17:02:54.841Z,24.61
2022-08-20T17:05:26.519Z,24.57
2022-08-20T17:08:01.830Z,24.55
2022-08-20T17:10:34.719Z,24.52
2022-08-20T17:13:14.778Z,24.46
2022-08-20T17:15:45.001Z,24.40
2022-08-20T17:18:24.539Z,24.36
2022-08-20T17:20:52.950Z,24.35
2022-08-20T17:23:21.917Z,24.32
2022-08-20T17:26:02.951Z,24.30
2022-08-20T17:28:35.240Z,24.28
2022-08-20T17:31:03.863Z,24.29
2022-08-20T17:33:39.089Z,24.29
2022-08-20T17:36:11.694Z,24.29
2022-08-20T17:38:52.229Z,24.29
2022-08-20T17:41:25.729Z,24.25
2022-08-20T17:44:17.691Z,24.20
2022-08-20T17:46:48.249Z,24.12
2022-08-20T17:49:21.337Z,24.05
2022-08-20T17:51:52.877Z,23.99
2022-08-20T17:54:30.102Z,23.94
2022-08-20T17:57:12.073Z,23.89
2022-08-20T18:00:00.960Z,23.82
2022-08-20T18:02:31.353Z,23.78
2022-08-20T18:04:59.817Z,23.75
2022-08-20T18:07:32.879Z,23.74
2022-08-20T18:10:10.893Z,23.73
2022-08-20T18:13:00.143Z,23.71
2022-08-20T18:15:40.929Z,23.67
2022-08-20T18:18:31.655Z,23.63
2022-08-20T18:21:32.422Z,23.59
2022-08-20T18:24:03.116Z,23.55
2022-08-20T18:26:44.201Z,23.53
2022-08-20T18:29:17.186Z,23.50
2022-08-20T18:32:07.222Z,23.47
2022-08-20T18:34:40.175Z,23.43
2022-08-20T18:37:17.293Z,23.40
2022-08-20T18:39:48.128Z,23.35
2022-08-20T18:42:21.933Z,23.32
2022-08-20T18:44:53.177Z,23.29
2022-08-20T18:47:34.338Z,23.27
2022-08-20T18:50:16.658Z,23.23
2022-08-20T18:52:51.221Z,23.21
2022-08-20T18:55:39.948Z,23.17
2022-08-20T18:58:11.589Z,23.14
2022-08-20T19:00:47.811Z,23.10
2022-08-20T19:03:22.265Z,23.08
2022-08-20T19:06:04.361Z,23.06
2022-08-20T19:08:46.421Z,23.04
2022-08-20T19:11:39.550Z,23.02
2022-08-20T19:14:07.670Z,23.00
2022-08-20T19:16:40.922Z,22.98
2022-08-20T19:19:20.308Z,22.98
2022-08-20T19:21:49.431Z,22.94
2022-08-20T19:24:25.269Z,22.93
2022-08-20T19:27:02.675Z,22.91
2022-08-20T19:29:50.036Z,22.87
2022-08-20T19:32:31.234Z,22.81
2022-08-20T19:35:02.869Z,22.78
2022-08-20T19:37:44.319Z,22.73
2022-08-20T19:40:30.152Z,22.68
2022-08-20T19:43:02.466Z,22.64
2022-08-20T19:45:54.695Z,22.58
2022-08-20T19:48:49.462Z,22.51
2022-08-20T19:51:26.422Z,22.44
2022-08-20T19:53:54.444Z,22.39
2022-08-20T19:56:25.214Z,22.33
2022-08-20T19:59:05.867Z,22.28
2022-08-20T20:01:36.055Z,22.21
2022-08-20T20:04:07.984Z,22.14
2022-08-20T20:06:41.704Z,22.06
2022-08-20T20:09:19.549Z,22.00
2022-08-20T20:11:54.476Z,21.96
2022-08-20T20:14:31.367Z,21.93
2022-08-20T20:17:00.914Z,21.91
2022-08-20T20:19:29.173Z,21.88
2022-08-20T20:22:19.278Z,21.86
2022-08-20T20:24:57.867Z,21.83
2022-08-20T20:27:28.935Z,21.82
2022-08-20T20:30:21.531Z,21.81
2022-08-20T20:32:50.640Z,21.79
2022-08-20T20:35:29.174Z,21.77
2022-08-20T20:38:02.533Z,21.74
2022-08-20T20:40:44.767Z,21.72
2022-08-20T20:43:42.121Z,21.68
2022-08-20T20:46:17.864Z,21.61
2022-08-20T20:48:48.980Z,21.54
2022-08-20T20:51:26.323Z,21.49
2022-08-20T20:53:57.476Z,21.47
2022-08-20T20:56:31.664Z,21.45
2022-08-20T20:59:06.189Z,21.43
2022-08-20T21:01:49.504Z,21.41
2022-08-20T21:04:23.463Z,21.41
2022-08-20T21:06:54.075Z,21.40
2022-08-20T21:09:24.512Z,21.39
2022-08-20T21:11:52.681Z,21.37
2022-08-20T21:14:20.937Z,21.34
2022-08-20T21:16:49.078Z,21.30
2022-08-20T21:19:18.035Z,21.28
2022-08-20T21:21:46.204Z,21.24
2022-08-20T21:24:14.212Z,21.21
2022-08-20T21:26:42.777Z,21.16
2022-08-20T21:29:15.739Z,21.12
2022-08-20T21:31:46.781Z,21.08
2022-08-20T21:34:16.164Z,21.03
2022-08-20T21:36:46.643Z,20.98
2022-08-20T21:39:14.959Z,20.94
2022-08-20T21:41:44.367Z,20.90
2022-08-20T21:44:24.797Z,20.88
2022-08-20T21:46:55.917Z,20.87
2022-08-20T21:49:25.609Z,20.85
2022-08-20T21:51:54.003Z,20.85
2022-08-20T21:54:23.532Z,20.86
2022-08-20T21:57:02.071Z,20.86
2022-08-20T21:59:30.828Z,20.87
2022-08-20T22:02:01.291Z,20.86
2022-08-20T22:04:32.323Z,20.86
2022-08-20T22:07:04.190Z,20.83
2022-08-20T22:09:34.028Z,20.78
2022-08-20T22:12:02.746Z,20.73
2022-08-20T22:14:31.022Z,20.71
2022-08-20T22:16:59.266Z,20.68
2022-08-20T22:19:27.428Z,20.65
2022-08-20T22:21:56.636Z,20.63
2022-08-20T22:24:28.864Z,20.61
2022-08-20T22:26:57.505Z,20.60
2022-08-20T22:29:25.533Z,20.59
2022-08-20T22:31:53.937Z,20.58
2022-08-20T22:34:22.593Z,20.58
2022-08-20T22:36:54.142Z,20.57
2022-08-20T22:39:22.185Z,20.55
2022-08-20T22:41:50.306Z,20.55
2022-08-20T22:44:18.342Z,20.53
2022-08-20T22:46:48.965Z,20.52
2022-08-20T22:49:24.079Z,20.50
2022-08-20T22:51:52.802Z,20.49
2022-08-20T22:54:23.711Z,20.48
2022-08-20T22:56:52.979Z,20.47
2022-08-20T22:59:21.896Z,20.47
2022-08-20T23:01:52.504Z,20.46
2022-08-20T23:04:25.886Z,20.45
2022-08-20T23:06:55.411Z,20.45
2022-08-20T23:09:24.788Z,20.45
2022-08-20T23:11:53.114Z,20.44
2022-08-20T23:14:22.074Z,20.42
2022-08-20T23:17:01.609Z,20.41
2022-08-20T23:19:30.008Z,20.40
2022-08-20T23:21:58.194Z,20.37
2022-08-20T23:24:26.760Z,20.36
2022-08-20T23:26:54.919Z,20.32
2022-08-20T23:29:25.723Z,20.30
2022-08-20T23:31:56.523Z,20.27
2022-08-20T23:34:26.131Z,20.26
2022-08-20T23:36:56.677Z,20.27
2022-08-20T23:39:25.286Z,20.27
2022-08-20T23:41:53.921Z,20.29
2022-08-20T23:44:25.685Z,20.29
2022-08-20T23:46:58.078Z,20.29
2022-08-20T23:49:27.256Z,20.29
2022-08-20T23:51:56.046Z,20.28
2022-08-20T23:54:24.368Z,20.27
2022-08-20T23:56:57.064Z,20.24
2022-08-20T23:59:26.369Z,20.23
